Bookmark and Share
Track history (hours):
 

Metsaborg

Last reported at 2014-Apr-16 10:17 UTC. Time now 2014-Apr-25 05:57 UTC.
Position N 36°56' E 012°27'.
Warning: this ship's position is 8 days out of date.

Length 134 m; draft 7.3 m.

Type: Cargo ship. MMSI: 246270000.

NotesDate/timePositionNaut miles runAvg speedWind from/ knotsBaromVisibWave heightAir tempDewpointWater temp
2014-Apr-16 10:17N 36°56' E 012°27'1412.3
2014-Apr-16 09:07N 37°01' E 012°10'812.2
2014-Apr-16 08:29N 37°04' E 012°01'11312.1
2014-Apr-15 23:06N 37°29' E 009°42'  
2014-Apr-13 13:33N 36°01' W 005°07'1414.0
2014-Apr-13 12:33N 35°58' W 005°24'1411.7
2014-Apr-13 11:24N 35°55' W 005°40'1110.0
2014-Apr-13 10:18N 35°54' W 005°54'20111.3
2014-Apr-12 16:33N 37°16' W 009°43'1812.8
2014-Apr-12 15:07N 37°34' W 009°47'4511.8
2014-Apr-12 11:20N 38°18' W 009°59'7 8.9
2014-Apr-12 10:33N 38°25' W 010°01'  
2014-Apr-09 15:32N 50°06' W 002°16'3711.3
2014-Apr-09 12:15N 50°16' W 001°20'913.1
2014-Apr-09 11:33N 50°19' W 001°07'1413.8
2014-Apr-09 10:33N 50°23' W 000°46'1413.6
2014-Apr-09 09:33N 50°27' W 000°25'1513.1
2014-Apr-09 08:22N 50°31' W 000°02'1212.6
2014-Apr-09 07:25N 50°35' E 000°16'1112.3
2014-Apr-09 06:34N 50°38' E 000°32'1211.9
2014-Apr-09 05:33N 50°44' E 000°48'1211.9
2014-Apr-09 04:33N 50°51' E 001°03'1212.0
2014-Apr-09 03:34N 50°59' E 001°17'1212.3
2014-Apr-09 02:34N 51°07' E 001°32'1313.0
2014-Apr-09 01:34N 51°16' E 001°47'1312.8
2014-Apr-09 00:33N 51°26' E 001°59'1312.2
2014-Apr-08 23:32N 51°36' E 002°11'1211.8
2014-Apr-08 22:33N 51°45' E 002°23'7810.6
2014-Apr-08 15:09N 52°31' E 004°07'610.4
2014-Apr-08 14:33N 52°30' E 004°17'9 9.2
2014-Apr-08 13:33N 52°28' E 004°31'4 3.5
2014-Apr-08 12:33N 52°28' E 004°37'8 8.2
2014-Apr-08 11:33N 52°25' E 004°50'1 1.3
2014-Apr-08 10:33N 52°24' E 004°52'0 0.0
2014-Apr-08 09:32N 52°24' E 004°52'0 0.0
2014-Apr-08 08:32N 52°24' E 004°52'0 0.0
2014-Apr-08 07:32N 52°24' E 004°52'0 0.0
2014-Apr-08 06:31N 52°24' E 004°52'0 0.0
2014-Apr-08 05:31N 52°24' E 004°52'0 0.0
2014-Apr-08 04:33N 52°24' E 004°52'3 3.3
2014-Apr-08 03:33N 52°25' E 004°46'1 1.1
2014-Apr-08 02:33N 52°24' E 004°47'0 0.0
2014-Apr-08 01:33N 52°24' E 004°47'0 0.0
2014-Apr-08 00:33N 52°24' E 004°47'0 0.0
2014-Apr-07 23:33N 52°24' E 004°47'0 0.0
2014-Apr-07 22:33N 52°24' E 004°47'0 0.0
2014-Apr-07 21:33N 52°24' E 004°47'0 0.0
2014-Apr-07 20:33N 52°24' E 004°47'0 0.0
2014-Apr-07 19:33N 52°24' E 004°47'0 0.0
2014-Apr-07 17:33N 52°24' E 004°47'0 0.0
2014-Apr-07 16:33N 52°24' E 004°47'0 0.0
2014-Apr-07 15:33N 52°24' E 004°47'0 0.0
2014-Apr-07 14:33N 52°24' E 004°47'0 0.0
2014-Apr-07 13:33N 52°24' E 004°47'0 0.0
2014-Apr-07 12:33N 52°24' E 004°47'0 0.0
2014-Apr-07 11:33N 52°24' E 004°47'0 0.0
2014-Apr-07 10:33N 52°24' E 004°47'0 0.0
2014-Apr-07 09:33N 52°24' E 004°47'0 0.0
2014-Apr-07 08:33N 52°24' E 004°47'0 0.0
2014-Apr-07 07:33N 52°24' E 004°47'0 0.0
2014-Apr-07 06:33N 52°24' E 004°47'0 0.0
2014-Apr-07 05:33N 52°24' E 004°47'0 0.0
2014-Apr-07 04:33N 52°24' E 004°47'0 0.0
2014-Apr-07 03:33N 52°24' E 004°47'0 0.0
2014-Apr-07 02:33N 52°24' E 004°47'0 0.0
2014-Apr-07 01:33N 52°24' E 004°47'0 0.0
2014-Apr-07 00:33N 52°24' E 004°47'0 0.0
2014-Apr-06 23:33N 52°24' E 004°47'0 0.0
2014-Apr-06 22:33N 52°24' E 004°47'0 0.0
2014-Apr-06 21:33N 52°24' E 004°47'0 0.0
2014-Apr-06 20:33N 52°24' E 004°47'0 0.0
2014-Apr-06 19:33N 52°24' E 004°47'0 0.0
2014-Apr-06 18:33N 52°24' E 004°47'0 0.0
2014-Apr-06 17:33N 52°24' E 004°47'0 0.0
2014-Apr-06 16:33N 52°24' E 004°47'0 0.0
2014-Apr-06 15:33N 52°24' E 004°47'0 0.0
2014-Apr-06 14:33N 52°24' E 004°47'0 0.0
2014-Apr-06 13:33N 52°24' E 004°47'0 0.0
2014-Apr-06 12:33N 52°24' E 004°47'0 0.0
2014-Apr-06 11:33N 52°24' E 004°47'0 0.0
2014-Apr-06 10:33N 52°24' E 004°47'  

Dump ship's entire track history

sailing weather and tide predictions

Metsaborg — PBFL — position and weather